Sedgefield, United Kingdom
Current Conditions -  °F | °C
As of 12:20 PM on Sunday 25 Jan 2015 (Local Time) from EGNV Reporting Station
Few Clouds Few Clouds  
Wind Chill: 42°   Ceiling: Unl
Heat Index: 48°   Visibility: 6mi
Dew Point: 41°   Wind: 17mph
Humidity: 76%   Direction: 230°SW
Pressure: 30.21"   Gusts: NA
Location:  54.65°N, 1.45°W
Report Text: EGNV 251220Z 23015KT 9999 FEW020 09/05 Q1023
Loading
Personal Weather Stations






























Interactive Weather Map New forecast layout! Learn more

10-Day Weather Forecast

Advertisements
Track Severe Weather on mobile